Pindall, AR (72669)

2:04 PM CDT on August 24, 2016 (GMT -0500)
Olvey | | Change Station

Elev 1086 ft 36.21 °N, 92.97 °W | Updated 5 seconds ago

Scattered Clouds
Scattered Clouds
89.8 °F
Feels Like 100 °F
N
2.0
Wind Variable Wind from SW
Gusts 5.0 mph

Today
High -- | Low -- °F
--% Chance of Precip.
Yesterday
High -- | Low -- °F
Precip. -- in
Pressure 30.07 in
Visibility 10.0 miles
Clouds Scattered Clouds 4200 ft
Heat Index 100 °F
Dew Point 75 °F
Humidity 62%
Rainfall 0.00 in
Snow Depth Not available.
6:37 AM 7:49 PM
Waning Gibbous, 54% visible
METAR KHRO 241853Z AUTO 21006KT 10SM SCT042 31/22 A3012 RMK AO2 SLP183 T03110222
Pressure 30.07 in
Visibility 10.0 miles
Clouds Scattered Clouds 4200 ft
Heat Index 100 °F
Dew Point 75 °F
Humidity 62%
Rainfall 0.00 in
Snow Depth Not available.
6:37 AM 7:49 PM
Waning Gibbous, 54% visible
METAR KHRO 241853Z AUTO 21006KT 10SM SCT042 31/22 A3012 RMK AO2 SLP183 T03110222

10-Day Weather Forecast

Almanac

Astronomy

Aug. 24, 2016 Rise Set
Actual Time
Civil Twilight
Nautical Twilight
Astronomical Twilight
Moon
Length of Visible Light
Length of Day
Tomorrow will be .
, % of the Moon is Illuminated

Today's Extremes

State Highs State Lows

Community

WunderPhotos

Upload Photos

1,934,684 photos uploaded!

WunderBlog® & News

Nearby

Air Quality

  Air Quality AQ Index Pollutant
Not available.

Snow Depth

Station Depth Elevation

Earthquake Activity

City Distance Mag. Time & Date
Minimum magnitude displayed is 2.5.

Coastal Water Temperatures

Place Temperature

Stations

Nearby Weather Stations

Station Location Temp. Windchill Dew Point Humidity Wind Precip. Elev Updated Type
                   

Watches & Warnings

There are currently no watches in effect.